createdAt,value
2022-08-05T00:01:36.510Z,18.90
2022-08-05T00:04:16.076Z,18.90
2022-08-05T00:06:43.308Z,18.80
2022-08-05T00:09:12.774Z,18.70
2022-08-05T00:11:49.220Z,18.70
2022-08-05T00:14:27.733Z,18.60
2022-08-05T00:16:56.335Z,18.50
2022-08-05T00:19:25.067Z,18.50
2022-08-05T00:22:01.285Z,18.50
2022-08-05T00:24:31.130Z,18.40
2022-08-05T00:27:01.714Z,18.40
2022-08-05T00:29:32.912Z,18.40
2022-08-05T00:32:12.703Z,18.40
2022-08-05T00:35:03.361Z,18.40
2022-08-05T00:37:51.018Z,18.40
2022-08-05T00:40:28.103Z,18.40
2022-08-05T00:43:01.664Z,18.40
2022-08-05T00:45:42.884Z,18.40
2022-08-05T00:48:12.855Z,18.40
2022-08-05T00:50:44.072Z,18.40
2022-08-05T00:54:01.349Z,18.40
2022-08-05T00:55:58.686Z,18.40
2022-08-05T00:58:27.490Z,18.40
2022-08-05T01:00:54.855Z,18.40
2022-08-05T01:03:22.862Z,18.30
2022-08-05T01:05:51.140Z,18.30
2022-08-05T01:08:39.899Z,18.30
2022-08-05T01:11:33.300Z,18.30
2022-08-05T01:14:38.898Z,18.30
2022-08-05T01:17:11.816Z,18.30
2022-08-05T01:20:23.060Z,18.30
2022-08-05T01:23:05.757Z,18.20
2022-08-05T01:25:53.125Z,18.20
2022-08-05T01:28:36.029Z,18.10
2022-08-05T01:31:24.097Z,18.00
2022-08-05T01:34:02.108Z,18.00
2022-08-05T01:36:34.134Z,18.00
2022-08-05T01:39:01.973Z,18.00
2022-08-05T01:41:34.684Z,17.90
2022-08-05T01:44:02.905Z,17.90
2022-08-05T01:46:42.376Z,17.80
2022-08-05T01:49:24.253Z,17.80
2022-08-05T01:51:58.320Z,17.80
2022-08-05T01:54:46.210Z,17.70
2022-08-05T01:58:10.466Z,17.60
2022-08-05T02:00:05.695Z,17.60
2022-08-05T02:02:54.415Z,17.60
2022-08-05T02:05:31.612Z,17.50
2022-08-05T02:08:02.000Z,17.60
2022-08-05T02:10:34.868Z,17.50
2022-08-05T02:13:18.805Z,17.40
2022-08-05T02:15:54.329Z,17.50
2022-08-05T02:18:34.182Z,17.40
2022-08-05T02:21:21.838Z,17.50
2022-08-05T02:23:53.379Z,17.40
2022-08-05T02:26:26.553Z,17.40
2022-08-05T02:28:56.088Z,17.50
2022-08-05T02:31:28.587Z,17.40
2022-08-05T02:34:06.194Z,17.40
2022-08-05T02:36:39.255Z,17.40
2022-08-05T02:39:08.850Z,17.40
2022-08-05T02:41:57.985Z,17.40
2022-08-05T02:44:25.703Z,17.40
2022-08-05T02:47:00.322Z,17.40
2022-08-05T02:49:36.699Z,17.40
2022-08-05T02:52:07.006Z,17.40
2022-08-05T02:54:36.888Z,17.40
2022-08-05T02:57:10.417Z,17.40
2022-08-05T02:59:55.242Z,17.40
2022-08-05T03:02:28.285Z,17.40
2022-08-05T03:04:58.537Z,17.40
2022-08-05T03:08:01.373Z,17.40
2022-08-05T03:10:21.725Z,17.40
2022-08-05T03:12:53.815Z,17.40
2022-08-05T03:15:23.234Z,17.50
2022-08-05T03:17:55.973Z,17.40
2022-08-05T03:20:25.093Z,17.50
2022-08-05T03:22:53.232Z,17.50
2022-08-05T03:25:33.725Z,17.50
2022-08-05T03:28:14.069Z,17.50
2022-08-05T03:30:42.466Z,17.50
2022-08-05T03:33:09.527Z,17.40
2022-08-05T03:35:40.917Z,17.40
2022-08-05T03:38:11.752Z,17.40
2022-08-05T03:40:47.230Z,17.40
2022-08-05T03:44:09.069Z,17.40
2022-08-05T03:46:04.955Z,17.40
2022-08-05T03:48:35.667Z,17.40
2022-08-05T03:52:38.008Z,17.30
2022-08-05T03:55:51.363Z,17.30
2022-08-05T03:56:50.009Z,17.30
2022-08-05T03:59:46.788Z,17.40
2022-08-05T04:02:17.552Z,17.30
2022-08-05T04:05:03.511Z,17.40
2022-08-05T04:07:33.043Z,17.40
2022-08-05T04:10:03.035Z,17.40
2022-08-05T04:12:30.330Z,17.40
2022-08-05T04:14:59.105Z,17.30
2022-08-05T04:17:26.318Z,17.30
2022-08-05T04:20:21.509Z,17.30
2022-08-05T04:22:50.365Z,17.40
2022-08-05T04:25:17.543Z,17.40
2022-08-05T04:27:57.505Z,17.50
2022-08-05T04:30:26.712Z,17.50
2022-08-05T04:32:53.529Z,17.60
2022-08-05T04:35:20.474Z,17.60
2022-08-05T04:38:01.250Z,17.60
2022-08-05T04:40:33.054Z,17.70
2022-08-05T04:42:59.817Z,17.80
2022-08-05T04:45:47.956Z,17.80
2022-08-05T04:48:18.708Z,17.90
2022-08-05T04:51:01.999Z,17.90
2022-08-05T04:53:33.529Z,17.90
2022-08-05T04:56:14.850Z,17.90
2022-08-05T04:58:49.638Z,17.90
2022-08-05T05:02:08.159Z,17.90
2022-08-05T05:04:04.681Z,18.00
2022-08-05T05:06:39.153Z,18.00
2022-08-05T05:09:17.188Z,18.10
2022-08-05T05:11:53.028Z,18.10
2022-08-05T05:14:27.937Z,18.10
2022-08-05T05:16:59.923Z,18.20
2022-08-05T05:19:36.787Z,18.30
2022-08-05T05:22:24.382Z,18.40
2022-08-05T05:24:59.912Z,18.60
2022-08-05T05:27:44.567Z,18.70
2022-08-05T05:30:30.627Z,18.80
2022-08-05T05:33:03.566Z,18.90
2022-08-05T05:35:42.655Z,19.00
2022-08-05T05:38:13.237Z,19.10
2022-08-05T05:40:49.846Z,19.20
2022-08-05T05:43:27.527Z,19.30
2022-08-05T05:46:10.735Z,19.40
2022-08-05T05:48:43.877Z,19.50
2022-08-05T05:51:15.732Z,19.70
2022-08-05T05:53:46.109Z,19.90
2022-08-05T05:56:31.451Z,20.10
2022-08-05T05:59:03.226Z,20.30
2022-08-05T06:01:37.151Z,20.40
2022-08-05T06:04:07.576Z,20.60
2022-08-05T06:06:35.683Z,20.70
2022-08-05T06:09:04.918Z,21.10
2022-08-05T06:11:32.989Z,21.20
2022-08-05T06:14:00.805Z,21.30
2022-08-05T06:16:33.047Z,21.40
2022-08-05T06:19:05.983Z,21.40
2022-08-05T06:21:36.116Z,21.50
2022-08-05T06:24:11.517Z,21.70
2022-08-05T06:26:40.213Z,21.90
2022-08-05T06:29:25.237Z,22.00
2022-08-05T06:32:21.051Z,22.20
2022-08-05T06:34:53.476Z,21.80
2022-08-05T06:37:55.685Z,21.90
2022-08-05T06:40:11.263Z,22.10
2022-08-05T06:42:39.900Z,22.30
2022-08-05T06:45:08.521Z,22.50
2022-08-05T06:48:44.195Z,22.60
2022-08-05T06:50:23.628Z,22.90
2022-08-05T06:52:58.602Z,23.10
2022-08-05T06:55:36.137Z,23.40
2022-08-05T06:58:20.316Z,23.60
2022-08-05T07:00:51.112Z,23.80
2022-08-05T07:03:18.628Z,24.10
2022-08-05T07:05:46.410Z,24.60
2022-08-05T07:08:13.680Z,24.90
2022-08-05T07:10:53.427Z,25.20
2022-08-05T07:13:58.256Z,25.40
2022-08-05T07:18:02.278Z,25.60
2022-08-05T07:22:28.976Z,25.10
2022-08-05T07:25:21.872Z,25.30
2022-08-05T07:27:57.742Z,25.20
2022-08-05T07:30:31.844Z,25.10
2022-08-05T07:33:05.543Z,25.00
2022-08-05T07:35:39.872Z,25.00
2022-08-05T07:38:33.696Z,24.70
2022-08-05T07:42:07.697Z,24.50
2022-08-05T07:43:56.426Z,24.40
2022-08-05T07:46:28.868Z,24.50
2022-08-05T07:49:02.857Z,24.40
2022-08-05T07:51:40.865Z,24.80
2022-08-05T07:54:22.041Z,25.40
2022-08-05T07:57:02.934Z,25.90
2022-08-05T07:59:41.076Z,26.20
2022-08-05T08:02:15.680Z,26.40
2022-08-05T08:04:45.987Z,26.70
2022-08-05T08:07:13.679Z,26.60
2022-08-05T08:09:41.737Z,26.30
2022-08-05T08:12:19.192Z,26.70
2022-08-05T08:14:56.057Z,27.10
2022-08-05T08:17:23.699Z,27.30
2022-08-05T08:20:21.206Z,27.30
2022-08-05T08:22:37.655Z,27.30
2022-08-05T08:25:07.277Z,27.30
2022-08-05T08:27:47.515Z,27.20
2022-08-05T08:30:32.401Z,27.70
2022-08-05T08:33:13.665Z,28.00
2022-08-05T08:35:52.729Z,28.20
2022-08-05T08:38:35.283Z,28.10
2022-08-05T08:41:08.133Z,28.20
2022-08-05T08:45:23.475Z,28.70
2022-08-05T08:46:27.369Z,28.90
2022-08-05T08:49:06.368Z,28.90
2022-08-05T08:52:03.773Z,28.90
2022-08-05T08:54:34.089Z,29.10
2022-08-05T08:57:11.220Z,29.10
2022-08-05T08:59:38.808Z,29.20
2022-08-05T09:02:09.317Z,29.10
2022-08-05T09:04:58.400Z,29.50
2022-08-05T09:07:28.887Z,29.40
2022-08-05T09:09:56.504Z,29.50
2022-08-05T09:12:27.041Z,29.90
2022-08-05T09:15:04.017Z,29.80
2022-08-05T09:17:42.313Z,30.10
2022-08-05T09:20:11.276Z,30.40
2022-08-05T09:23:19.934Z,30.50
2022-08-05T09:26:06.266Z,30.40
2022-08-05T09:28:35.020Z,30.30
2022-08-05T09:31:44.111Z,30.50
2022-08-05T09:33:53.690Z,30.10
2022-08-05T09:36:20.771Z,30.60
2022-08-05T09:39:16.398Z,30.50
2022-08-05T09:41:59.298Z,30.60
2022-08-05T09:46:04.786Z,30.70
2022-08-05T09:47:55.896Z,30.90
2022-08-05T09:50:38.728Z,31.50
2022-08-05T09:53:23.023Z,31.70
2022-08-05T09:56:05.075Z,31.70
2022-08-05T09:58:42.342Z,32.00
2022-08-05T10:01:14.574Z,32.30
2022-08-05T10:04:00.290Z,32.70
2022-08-05T10:06:27.899Z,32.50
2022-08-05T10:08:55.944Z,32.50
2022-08-05T10:11:23.016Z,33.10
2022-08-05T10:13:54.688Z,33.70
2022-08-05T10:16:34.091Z,33.70
2022-08-05T10:19:09.295Z,32.70
2022-08-05T10:21:40.316Z,32.70
2022-08-05T10:24:13.741Z,32.00
2022-08-05T10:26:51.871Z,31.30
2022-08-05T10:29:23.353Z,30.80
2022-08-05T10:32:53.998Z,30.60
2022-08-05T10:34:40.909Z,30.20
2022-08-05T10:37:08.189Z,30.30
2022-08-05T10:39:59.476Z,29.90
2022-08-05T10:42:33.761Z,29.80
2022-08-05T10:45:02.083Z,29.80
2022-08-05T10:48:30.360Z,29.70
2022-08-05T10:50:58.065Z,29.80
2022-08-05T10:53:39.710Z,30.10
2022-08-05T10:56:25.119Z,30.20
2022-08-05T10:58:55.425Z,29.90
2022-08-05T11:01:54.809Z,30.00
2022-08-05T11:04:31.778Z,29.80
2022-08-05T11:07:06.573Z,30.50
2022-08-05T11:09:46.767Z,31.10
2022-08-05T11:12:42.028Z,31.90
2022-08-05T11:15:19.026Z,32.50
2022-08-05T11:17:59.100Z,32.80
2022-08-05T11:20:44.340Z,33.00
2022-08-05T11:24:05.632Z,33.00
2022-08-05T11:26:32.645Z,33.50
2022-08-05T11:29:12.567Z,33.10
2022-08-05T11:31:56.648Z,33.50
2022-08-05T11:34:50.858Z,33.60
2022-08-05T11:38:29.583Z,34.00
2022-08-05T11:41:03.556Z,33.60
2022-08-05T11:44:07.643Z,33.40
2022-08-05T11:47:10.986Z,33.10
2022-08-05T11:49:42.806Z,33.90
2022-08-05T11:52:11.855Z,33.50
2022-08-05T11:54:43.418Z,34.00
2022-08-05T11:57:25.311Z,32.30
2022-08-05T11:59:54.334Z,33.20
2022-08-05T12:02:31.750Z,32.50
2022-08-05T12:05:01.372Z,32.70
2022-08-05T12:08:04.395Z,33.00
2022-08-05T12:10:42.950Z,34.10
2022-08-05T12:13:27.899Z,34.40
2022-08-05T12:16:14.704Z,34.10
2022-08-05T12:18:42.789Z,34.80
2022-08-05T12:21:24.295Z,34.20
2022-08-05T12:24:00.166Z,34.70
2022-08-05T12:26:44.343Z,34.40
2022-08-05T12:29:25.145Z,34.40
2022-08-05T12:31:58.501Z,34.60
2022-08-05T12:34:37.054Z,34.20
2022-08-05T12:37:10.891Z,34.70
2022-08-05T12:39:51.183Z,34.90
2022-08-05T12:42:20.904Z,35.30
2022-08-05T12:44:48.252Z,35.10
2022-08-05T12:47:27.598Z,35.00
2022-08-05T12:50:02.133Z,35.30
2022-08-05T12:52:39.348Z,35.30
2022-08-05T12:55:28.319Z,35.30
2022-08-05T12:58:51.431Z,35.60
2022-08-05T13:02:00.871Z,35.60
2022-08-05T13:03:41.737Z,35.50
2022-08-05T13:06:13.172Z,35.10
2022-08-05T13:08:40.597Z,34.60
2022-08-05T13:11:18.162Z,34.70
2022-08-05T13:14:19.904Z,34.80
2022-08-05T13:16:51.743Z,35.10
2022-08-05T13:19:22.208Z,34.90
2022-08-05T13:21:52.575Z,35.00
2022-08-05T13:24:27.564Z,35.50
2022-08-05T13:27:17.093Z,35.50
2022-08-05T13:29:59.576Z,36.20
2022-08-05T13:32:42.019Z,36.00
2022-08-05T13:35:09.837Z,35.60
2022-08-05T13:37:36.606Z,35.20
2022-08-05T13:40:20.105Z,35.70
2022-08-05T13:42:50.713Z,35.10
2022-08-05T13:45:22.649Z,34.90
2022-08-05T13:48:09.802Z,35.20
2022-08-05T13:50:44.533Z,35.70
2022-08-05T13:53:15.727Z,36.10
2022-08-05T13:55:50.070Z,35.60
2022-08-05T13:58:30.521Z,35.90
2022-08-05T14:00:58.455Z,35.90
2022-08-05T14:03:29.868Z,35.10
2022-08-05T14:06:25.371Z,35.10
2022-08-05T14:08:46.537Z,34.80
2022-08-05T14:11:20.609Z,35.00
2022-08-05T14:13:48.764Z,34.50
2022-08-05T14:16:22.010Z,35.00
2022-08-05T14:18:49.090Z,35.20
2022-08-05T14:22:07.715Z,35.50
2022-08-05T14:24:03.505Z,34.80
2022-08-05T14:26:38.285Z,34.40
2022-08-05T14:29:16.829Z,34.80
2022-08-05T14:32:03.157Z,35.30
2022-08-05T14:34:35.441Z,35.10
2022-08-05T14:37:04.257Z,35.10
2022-08-05T14:39:49.277Z,34.70
2022-08-05T14:42:20.848Z,34.60
2022-08-05T14:44:49.042Z,34.40
2022-08-05T14:47:15.912Z,34.20
2022-08-05T14:49:58.927Z,34.10
2022-08-05T14:52:51.926Z,33.80
2022-08-05T14:55:15.599Z,33.40
2022-08-05T14:57:54.730Z,33.40
2022-08-05T15:00:27.969Z,32.90
2022-08-05T15:02:55.349Z,32.20
2022-08-05T15:05:22.291Z,32.00
2022-08-05T15:08:08.803Z,31.90
2022-08-05T15:10:43.452Z,32.20
2022-08-05T15:13:13.385Z,32.60
2022-08-05T15:15:55.137Z,32.40
2022-08-05T15:18:23.395Z,31.80
2022-08-05T15:20:50.221Z,31.40
2022-08-05T15:23:18.130Z,31.20
2022-08-05T15:25:52.291Z,30.80
2022-08-05T15:28:27.348Z,30.70
2022-08-05T15:30:54.816Z,30.60
2022-08-05T15:34:18.446Z,30.30
2022-08-05T15:36:16.729Z,30.00
2022-08-05T15:38:45.068Z,29.90
2022-08-05T15:41:22.289Z,29.90
2022-08-05T15:43:50.653Z,29.90
2022-08-05T15:46:19.873Z,29.60
2022-08-05T15:48:52.653Z,29.60
2022-08-05T15:52:12.467Z,29.60
2022-08-05T15:54:16.597Z,29.30
2022-08-05T15:56:43.646Z,29.30
2022-08-05T15:59:19.894Z,29.20
2022-08-05T16:01:52.233Z,29.30
2022-08-05T16:04:21.125Z,29.30
2022-08-05T16:06:53.850Z,29.30
2022-08-05T16:09:22.639Z,29.40
2022-08-05T16:11:52.800Z,29.40
2022-08-05T16:14:20.177Z,29.40
2022-08-05T16:16:47.262Z,29.40
2022-08-05T16:19:19.185Z,29.40
2022-08-05T16:22:03.229Z,29.60
2022-08-05T16:24:39.738Z,29.40
2022-08-05T16:27:09.031Z,29.20
2022-08-05T16:29:37.437Z,29.20
2022-08-05T16:32:10.104Z,29.00
2022-08-05T16:34:39.260Z,29.10
2022-08-05T16:38:03.293Z,29.00
2022-08-05T16:40:05.567Z,28.90
2022-08-05T16:42:35.116Z,28.90
2022-08-05T16:45:06.076Z,28.90
2022-08-05T16:47:55.482Z,28.80
2022-08-05T16:50:25.417Z,28.70
2022-08-05T16:52:52.755Z,28.60
2022-08-05T16:55:23.165Z,28.60
2022-08-05T16:57:53.429Z,28.40
2022-08-05T17:00:34.357Z,28.20
2022-08-05T17:03:09.129Z,28.20
2022-08-05T17:05:42.265Z,28.10
2022-08-05T17:08:09.177Z,28.00
2022-08-05T17:10:40.120Z,27.90
2022-08-05T17:13:16.608Z,27.90
2022-08-05T17:15:48.503Z,27.90
2022-08-05T17:18:18.037Z,27.70
2022-08-05T17:20:45.819Z,27.80
2022-08-05T17:24:04.311Z,27.70
2022-08-05T17:25:59.472Z,27.50
2022-08-05T17:28:26.419Z,27.30
2022-08-05T17:30:55.818Z,27.20
2022-08-05T17:33:23.048Z,27.10
2022-08-05T17:36:07.330Z,26.90
2022-08-05T17:38:36.067Z,26.80
2022-08-05T17:41:03.054Z,26.60
2022-08-05T17:43:50.506Z,26.60
2022-08-05T17:46:18.315Z,26.50
2022-08-05T17:48:47.748Z,26.50
2022-08-05T17:51:14.818Z,26.40
2022-08-05T17:53:54.754Z,26.30
2022-08-05T17:56:22.740Z,26.20
2022-08-05T17:58:51.225Z,26.20
2022-08-05T18:01:19.701Z,26.20
2022-08-05T18:03:56.285Z,26.00
2022-08-05T18:06:29.357Z,25.90
2022-08-05T18:08:58.332Z,25.90
2022-08-05T18:11:32.909Z,25.80
2022-08-05T18:14:03.708Z,25.70
2022-08-05T18:16:31.393Z,25.50
2022-08-05T18:18:58.164Z,25.40
2022-08-05T18:21:26.467Z,25.20
2022-08-05T18:23:55.551Z,25.20
2022-08-05T18:26:29.202Z,25.00
2022-08-05T18:28:58.904Z,25.00
2022-08-05T18:31:25.901Z,24.90
2022-08-05T18:34:01.139Z,24.80
2022-08-05T18:36:29.469Z,24.70
2022-08-05T18:38:56.459Z,24.60
2022-08-05T18:41:58.284Z,24.50
2022-08-05T18:44:11.360Z,24.40
2022-08-05T18:46:41.083Z,24.30
2022-08-05T18:49:30.337Z,24.30
2022-08-05T18:52:16.301Z,24.20
2022-08-05T18:54:45.831Z,24.10
2022-08-05T18:57:15.448Z,24.10
2022-08-05T19:00:01.778Z,24.10
2022-08-05T19:02:29.581Z,24.00
2022-08-05T19:05:02.272Z,23.90
2022-08-05T19:07:47.984Z,23.80
2022-08-05T19:10:16.273Z,23.80
2022-08-05T19:12:46.188Z,23.70
2022-08-05T19:15:56.924Z,23.70
2022-08-05T19:18:09.520Z,23.60
2022-08-05T19:20:41.440Z,23.50
2022-08-05T19:24:04.119Z,23.60
2022-08-05T19:26:01.725Z,23.50
2022-08-05T19:28:30.682Z,23.40
2022-08-05T19:30:57.755Z,23.40
2022-08-05T19:33:34.039Z,23.30
2022-08-05T19:36:06.146Z,23.30
2022-08-05T19:38:35.529Z,23.20
2022-08-05T19:41:03.244Z,23.20
2022-08-05T19:44:05.995Z,23.10
2022-08-05T19:46:30.031Z,23.10
2022-08-05T19:49:03.360Z,23.10
2022-08-05T19:52:05.070Z,23.00
2022-08-05T19:54:29.611Z,23.00
2022-08-05T19:57:02.411Z,23.00
2022-08-05T19:59:59.352Z,23.00
2022-08-05T20:02:20.705Z,23.00
2022-08-05T20:04:48.410Z,22.90
2022-08-05T20:07:15.552Z,22.90
2022-08-05T20:09:54.131Z,22.90
2022-08-05T20:12:24.142Z,22.80
2022-08-05T20:14:52.874Z,22.70
2022-08-05T20:17:23.694Z,22.70
2022-08-05T20:19:56.644Z,22.60
2022-08-05T20:22:24.995Z,22.70
2022-08-05T20:24:54.072Z,22.60
2022-08-05T20:27:21.112Z,22.60
2022-08-05T20:29:57.589Z,22.50
2022-08-05T20:32:26.149Z,22.40
2022-08-05T20:34:53.124Z,22.40
2022-08-05T20:38:05.985Z,22.30
2022-08-05T20:40:08.659Z,22.30
2022-08-05T20:42:35.636Z,22.30
2022-08-05T20:45:02.811Z,22.20
2022-08-05T20:47:32.017Z,22.20
2022-08-05T20:49:59.870Z,22.10
2022-08-05T20:52:29.380Z,22.10
2022-08-05T20:54:59.738Z,22.10
2022-08-05T20:57:44.884Z,22.00
2022-08-05T21:00:41.617Z,21.90
2022-08-05T21:03:06.326Z,21.90
2022-08-05T21:05:47.436Z,21.90
2022-08-05T21:08:20.201Z,21.90
2022-08-05T21:10:48.933Z,21.90
2022-08-05T21:13:26.014Z,21.80
2022-08-05T21:15:54.808Z,21.80
2022-08-05T21:18:23.403Z,21.80
2022-08-05T21:20:50.313Z,21.80
2022-08-05T21:23:17.351Z,21.70
2022-08-05T21:25:44.805Z,21.70
2022-08-05T21:28:12.103Z,21.70
2022-08-05T21:30:40.005Z,21.70
2022-08-05T21:33:22.403Z,21.60
2022-08-05T21:35:58.592Z,21.60
2022-08-05T21:38:27.298Z,21.50
2022-08-05T21:40:54.171Z,21.40
2022-08-05T21:43:24.498Z,21.40
2022-08-05T21:45:57.568Z,21.40
2022-08-05T21:48:28.038Z,21.40
2022-08-05T21:50:55.688Z,21.40
2022-08-05T21:53:27.237Z,21.40
2022-08-05T21:56:04.865Z,21.30
2022-08-05T21:58:42.065Z,21.30
2022-08-05T22:01:10.765Z,21.30
2022-08-05T22:03:48.538Z,21.10
2022-08-05T22:06:22.287Z,21.00
2022-08-05T22:08:50.557Z,21.00
2022-08-05T22:11:19.631Z,20.80
2022-08-05T22:14:32.329Z,20.80
2022-08-05T22:16:52.259Z,20.50
2022-08-05T22:20:01.791Z,20.30
2022-08-05T22:22:07.684Z,20.20
2022-08-05T22:24:55.754Z,20.10
2022-08-05T22:28:08.858Z,20.10
2022-08-05T22:30:32.473Z,20.00
2022-08-05T22:33:02.825Z,19.90
2022-08-05T22:35:31.210Z,19.70
2022-08-05T22:38:15.917Z,19.70
2022-08-05T22:40:49.863Z,19.40
2022-08-05T22:43:36.593Z,19.30
2022-08-05T22:46:12.089Z,19.10
2022-08-05T22:48:41.901Z,18.90
2022-08-05T22:51:22.506Z,18.90
2022-08-05T22:53:50.906Z,18.80
2022-08-05T22:56:30.381Z,18.60
2022-08-05T22:58:58.424Z,18.50
2022-08-05T23:02:03.791Z,18.40
2022-08-05T23:04:13.892Z,18.40
2022-08-05T23:06:41.560Z,18.50
2022-08-05T23:09:24.652Z,18.50
2022-08-05T23:11:56.302Z,18.40
2022-08-05T23:14:32.277Z,18.30
2022-08-05T23:17:18.791Z,18.10
2022-08-05T23:19:56.478Z,18.10
2022-08-05T23:22:27.218Z,18.10
2022-08-05T23:24:54.897Z,18.00
2022-08-05T23:27:21.823Z,17.90
2022-08-05T23:29:50.647Z,17.90
2022-08-05T23:32:22.447Z,17.80
2022-08-05T23:34:49.943Z,17.70
2022-08-05T23:37:17.877Z,17.60
2022-08-05T23:39:54.583Z,17.50
2022-08-05T23:42:23.373Z,17.40
2022-08-05T23:44:56.373Z,17.20
2022-08-05T23:47:24.994Z,16.90
2022-08-05T23:49:55.594Z,16.80
2022-08-05T23:52:26.849Z,16.80
2022-08-05T23:54:58.364Z,16.70
2022-08-05T23:57:28.251Z,16.60
